Time;durP1;ratioP1;P1;durP2;ratioP2;P2;SDS_P1;SDS_P2;PMS_P1;PMS_P2;Temp;Humidity;BMP_temperature;BMP_pressure;BME280_temperature;BME280_humidity;BME280_pressure;Samples;Min_cycle;Max_cycle;Signal;HPM_P1;HPM_P2
2023/06/18 00:01:02;;;;;;;18.35;11.75;;;;;;;;;;5035047;28;20037;-75
2023/06/18 00:03:28;;;;;;;17.45;11.48;;;;;;;;;;5033270;28;20052;-75
2023/06/18 00:05:55;;;;;;;19.50;11.10;;;;;;;;;;5033321;28;20399;-74
2023/06/18 00:08:21;;;;;;;18.90;11.88;;;;;;;;;;5033670;28;20063;-76
2023/06/18 00:10:47;;;;;;;18.02;11.65;;;;;;;;;;5033355;28;20022;-75
2023/06/18 00:13:13;;;;;;;16.13;11.23;;;;;;;;;;5033187;28;20053;-74
2023/06/18 00:15:39;;;;;;;19.63;12.18;;;;;;;;;;5033774;28;20376;-74
2023/06/18 00:18:05;;;;;;;17.35;11.48;;;;;;;;;;5044222;28;20030;-75
2023/06/18 00:20:34;;;;;;;18.60;11.27;;;;;;;;;;5040670;28;20181;-75
2023/06/18 00:23:00;;;;;;;18.13;11.85;;;;;;;;;;5036384;28;20025;-76
2023/06/18 00:25:27;;;;;;;16.58;11.20;;;;;;;;;;5036835;28;20029;-76
2023/06/18 00:27:53;;;;;;;17.38;11.43;;;;;;;;;;5035869;28;20029;-73
2023/06/18 00:30:19;;;;;;;15.15;10.85;;;;;;;;;;5033746;28;20372;-73
2023/06/18 00:32:45;;;;;;;19.58;11.50;;;;;;;;;;5033324;28;20025;-74
2023/06/18 00:35:17;;;;;;;18.13;11.43;;;;;;;;;;5034063;28;20058;-74
2023/06/18 00:37:43;;;;;;;18.85;11.52;;;;;;;;;;5033463;28;20052;-74
2023/06/18 00:40:13;;;;;;;14.60;10.57;;;;;;;;;;5033211;28;20029;-73
2023/06/18 00:42:40;;;;;;;17.90;11.75;;;;;;;;;;5033004;28;20052;-74
2023/06/18 00:45:09;;;;;;;15.50;11.02;;;;;;;;;;5033407;28;20526;-74
2023/06/18 00:47:44;;;;;;;17.48;10.82;;;;;;;;;;5033109;28;20037;-74
2023/06/18 00:50:12;;;;;;;;;;;;;;;;;;5033385;28;20528;-74
2023/06/18 00:52:39;;;;;;;18.38;10.95;;;;;;;;;;5032474;28;19905;-74
2023/06/18 00:55:05;;;;;;;20.60;10.93;;;;;;;;;;5032698;28;20026;-75
2023/06/18 00:57:31;;;;;;;17.00;11.20;;;;;;;;;;5032532;28;20340;-75
2023/06/18 00:59:57;;;;;;;19.75;12.00;;;;;;;;;;5032537;28;20028;-75
2023/06/18 01:02:25;;;;;;;16.08;11.13;;;;;;;;;;5032484;28;20028;-75
2023/06/18 01:04:55;;;;;;;17.65;11.38;;;;;;;;;;5032538;28;20024;-75
2023/06/18 01:07:22;;;;;;;16.17;11.05;;;;;;;;;;5032624;28;20022;-76
2023/06/18 01:09:54;;;;;;;19.00;11.85;;;;;;;;;;5031989;28;20487;-74
2023/06/18 01:12:30;;;;;;;15.98;11.63;;;;;;;;;;5032050;28;20061;-73
2023/06/18 01:14:56;;;;;;;19.13;11.85;;;;;;;;;;5032184;28;20368;-76
2023/06/18 01:17:23;;;;;;;16.60;11.05;;;;;;;;;;5032241;28;20518;-74
2023/06/18 01:19:55;;;;;;;19.48;11.50;;;;;;;;;;5032647;28;20041;-74
2023/06/18 01:22:40;;;;;;;17.05;11.13;;;;;;;;;;5032363;28;20055;-73
2023/06/18 01:25:08;;;;;;;15.55;11.10;;;;;;;;;;5032054;28;20028;-73
2023/06/18 01:27:40;;;;;;;16.10;11.30;;;;;;;;;;5031863;28;20092;-73
2023/06/18 01:30:06;;;;;;;17.17;11.23;;;;;;;;;;5031835;28;20087;-75
2023/06/18 01:32:32;;;;;;;15.30;11.10;;;;;;;;;;5030258;28;20091;-72
2023/06/18 01:34:59;;;;;;;18.98;11.57;;;;;;;;;;5031676;28;20501;-73
2023/06/18 01:37:43;;;;;;;17.25;11.68;;;;;;;;;;5031710;28;20415;-74
2023/06/18 01:40:18;;;;;;;16.27;10.80;;;;;;;;;;5031790;28;20033;-74
2023/06/18 01:42:56;;;;;;;15.40;10.38;;;;;;;;;;5030641;28;20428;-74
2023/06/18 01:45:25;;;;;;;14.60;11.00;;;;;;;;;;5031584;28;20392;-74
2023/06/18 01:47:52;;;;;;;18.65;11.60;;;;;;;;;;5031913;28;20017;-73
2023/06/18 01:50:18;;;;;;;16.48;11.60;;;;;;;;;;5029320;28;20049;-74
2023/06/18 01:52:44;;;;;;;16.88;11.52;;;;;;;;;;5028783;28;20060;-73
2023/06/18 01:55:11;;;;;;;18.15;11.45;;;;;;;;;;5031449;28;20037;-74
2023/06/18 01:57:37;;;;;;;21.83;11.60;;;;;;;;;;5031639;28;20021;-73
2023/06/18 02:00:04;;;;;;;14.18;10.50;;;;;;;;;;5031246;28;20033;-74
2023/06/18 02:02:30;;;;;;;16.80;11.25;;;;;;;;;;5030678;28;20032;-74
2023/06/18 02:04:57;;;;;;;14.43;11.10;;;;;;;;;;5031397;28;20095;-74
2023/06/18 02:07:23;;;;;;;12.50;9.65;;;;;;;;;;5031192;28;20026;-74
2023/06/18 02:09:49;;;;;;;13.32;9.68;;;;;;;;;;5030841;28;20040;-74
2023/06/18 02:12:15;;;;;;;14.07;10.20;;;;;;;;;;5030652;28;20025;-74
2023/06/18 02:14:41;;;;;;;13.88;10.00;;;;;;;;;;5031005;28;20044;-73
2023/06/18 02:17:07;;;;;;;13.77;9.98;;;;;;;;;;5031124;28;20105;-75
2023/06/18 02:19:33;;;;;;;17.95;10.88;;;;;;;;;;5032319;28;20022;-75
2023/06/18 02:21:59;;;;;;;13.07;9.48;;;;;;;;;;5033292;28;20490;-73
2023/06/18 02:24:25;;;;;;;16.08;10.35;;;;;;;;;;5031066;28;20024;-73
2023/06/18 02:26:51;;;;;;;15.80;10.77;;;;;;;;;;5031260;28;20033;-74
2023/06/18 02:29:17;;;;;;;13.88;9.93;;;;;;;;;;5031098;28;20086;-74
2023/06/18 02:31:43;;;;;;;12.98;9.90;;;;;;;;;;5031496;28;20091;-74
2023/06/18 02:34:09;;;;;;;13.63;9.95;;;;;;;;;;5030960;28;20503;-74
2023/06/18 02:36:38;;;;;;;14.80;10.68;;;;;;;;;;5036749;28;20052;-73
2023/06/18 02:39:04;;;;;;;14.02;10.95;;;;;;;;;;5037724;28;20029;-73
2023/06/18 02:41:30;;;;;;;17.33;10.88;;;;;;;;;;5036612;28;20117;-72
2023/06/18 02:43:56;;;;;;;14.38;10.55;;;;;;;;;;5035334;28;20022;-73
2023/06/18 02:46:22;;;;;;;13.15;10.43;;;;;;;;;;5033895;28;20021;-74
2023/06/18 02:48:48;;;;;;;14.20;10.18;;;;;;;;;;5031313;28;20021;-74
2023/06/18 02:51:14;;;;;;;18.73;10.85;;;;;;;;;;5030568;28;20026;-72
2023/06/18 02:53:40;;;;;;;14.85;10.07;;;;;;;;;;5030937;28;20029;-73
2023/06/18 02:56:06;;;;;;;15.10;11.00;;;;;;;;;;5034926;28;20071;-73
2023/06/18 02:58:35;;;;;;;16.45;11.45;;;;;;;;;;5034781;28;20037;-73
2023/06/18 03:01:02;;;;;;;15.43;11.95;;;;;;;;;;5034671;28;20513;-73
2023/06/18 03:03:28;;;;;;;18.05;12.65;;;;;;;;;;5034297;28;20537;-72
2023/06/18 03:05:54;;;;;;;20.40;12.98;;;;;;;;;;5034352;28;20028;-73
2023/06/18 03:08:21;;;;;;;19.60;13.82;;;;;;;;;;5034333;28;20025;-73
2023/06/18 03:10:47;;;;;;;19.08;12.50;;;;;;;;;;5034387;28;20433;-72
2023/06/18 03:13:13;;;;;;;23.98;14.38;;;;;;;;;;5034067;28;20097;-73
2023/06/18 03:15:39;;;;;;;18.50;13.00;;;;;;;;;;5034391;28;20029;-72
2023/06/18 03:18:05;;;;;;;19.70;13.38;;;;;;;;;;5038169;28;20450;-73
2023/06/18 03:20:32;;;;;;;16.08;12.02;;;;;;;;;;5039296;28;20022;-74
2023/06/18 03:22:58;;;;;;;17.50;11.73;;;;;;;;;;5039740;28;20029;-73
2023/06/18 03:25:24;;;;;;;17.40;12.38;;;;;;;;;;5038730;28;20072;-73
2023/06/18 03:27:50;;;;;;;22.75;13.95;;;;;;;;;;5038132;28;20026;-73
2023/06/18 03:30:17;;;;;;;16.75;12.35;;;;;;;;;;5037418;28;20049;-73
2023/06/18 03:32:43;;;;;;;15.05;10.68;;;;;;;;;;5037874;28;20027;-73
2023/06/18 03:35:09;;;;;;;15.48;11.13;;;;;;;;;;5036073;28;20519;-72
2023/06/18 03:37:36;;;;;;;16.67;11.05;;;;;;;;;;5034149;28;20075;-73
2023/06/18 03:40:03;;;;;;;16.73;11.10;;;;;;;;;;5033911;28;20029;-73
2023/06/18 03:42:29;;;;;;;22.10;12.15;;;;;;;;;;5034266;28;20116;-72
2023/06/18 03:44:55;;;;;;;18.83;12.18;;;;;;;;;;5033754;28;20060;-71
2023/06/18 03:47:21;;;;;;;17.13;12.35;;;;;;;;;;5033717;28;20375;-72
2023/06/18 03:49:47;;;;;;;20.08;12.20;;;;;;;;;;5033503;28;20025;-73
2023/06/18 03:52:13;;;;;;;17.92;12.93;;;;;;;;;;5033584;28;20380;-72
2023/06/18 03:54:40;;;;;;;17.63;12.75;;;;;;;;;;5033735;28;20036;-73
2023/06/18 03:57:06;;;;;;;19.92;13.30;;;;;;;;;;5036335;28;20017;-73
2023/06/18 03:59:33;;;;;;;19.17;12.73;;;;;;;;;;5033772;28;20083;-72
2023/06/18 04:01:59;;;;;;;18.13;12.93;;;;;;;;;;5033097;28;20434;-72
2023/06/18 04:04:25;;;;;;;20.05;11.45;;;;;;;;;;5033463;28;20026;-74
2023/06/18 04:06:51;;;;;;;15.75;10.95;;;;;;;;;;5032512;28;20048;-72
2023/06/18 04:09:17;;;;;;;18.17;12.20;;;;;;;;;;5033414;28;20029;-73
2023/06/18 04:11:43;;;;;;;18.95;12.50;;;;;;;;;;5033209;28;20028;-73
2023/06/18 04:14:09;;;;;;;17.05;12.48;;;;;;;;;;5033439;28;20026;-72
2023/06/18 04:16:35;;;;;;;19.52;12.95;;;;;;;;;;5033259;28;20029;-72
2023/06/18 04:19:01;;;;;;;15.88;11.68;;;;;;;;;;5033423;28;20060;-72
2023/06/18 04:21:27;;;;;;;20.90;11.77;;;;;;;;;;5033153;28;20134;-73
2023/06/18 04:23:54;;;;;;;16.42;11.15;;;;;;;;;;5033074;28;20044;-72
2023/06/18 04:26:20;;;;;;;16.10;11.82;;;;;;;;;;5033586;28;20034;-71
2023/06/18 04:28:46;;;;;;;18.10;10.57;;;;;;;;;;5033142;28;20025;-73
2023/06/18 04:31:12;;;;;;;15.93;10.88;;;;;;;;;;5035998;28;20489;-73
2023/06/18 04:33:38;;;;;;;17.33;11.10;;;;;;;;;;5036524;28;20017;-75
2023/06/18 04:36:05;;;;;;;19.52;11.80;;;;;;;;;;5033030;28;20037;-74
2023/06/18 04:38:31;;;;;;;17.48;12.63;;;;;;;;;;5038662;28;20022;-75
2023/06/18 04:40:57;;;;;;;15.20;11.45;;;;;;;;;;5039320;28;20036;-73
2023/06/18 04:43:22;;;;;;;18.45;12.27;;;;;;;;;;5043739;28;20038;-75
2023/06/18 04:45:49;;;;;;;20.17;12.43;;;;;;;;;;5033208;28;20101;-74
2023/06/18 04:48:15;;;;;;;16.17;12.18;;;;;;;;;;5033362;28;20032;-73
2023/06/18 04:50:41;;;;;;;20.50;12.43;;;;;;;;;;5031187;28;20470;-73
2023/06/18 04:53:07;;;;;;;17.25;12.40;;;;;;;;;;5040815;28;20111;-72
2023/06/18 04:55:33;;;;;;;18.30;12.05;;;;;;;;;;5034574;28;20022;-73
2023/06/18 04:57:59;;;;;;;15.27;11.27;;;;;;;;;;5032310;28;20033;-72
2023/06/18 05:00:26;;;;;;;18.08;12.60;;;;;;;;;;5032479;28;20035;-72
2023/06/18 05:02:52;;;;;;;19.58;13.80;;;;;;;;;;5032410;28;20049;-71
2023/06/18 05:05:18;;;;;;;18.20;12.68;;;;;;;;;;5032288;28;20032;-71
2023/06/18 05:07:44;;;;;;;18.38;11.60;;;;;;;;;;5032312;28;20013;-71
2023/06/18 05:10:10;;;;;;;14.25;11.20;;;;;;;;;;5032242;28;20467;-72
2023/06/18 05:12:38;;;;;;;14.02;11.02;;;;;;;;;;5034060;28;20029;-71
2023/06/18 05:15:04;;;;;;;18.75;13.00;;;;;;;;;;5035092;28;20053;-73
2023/06/18 05:17:30;;;;;;;17.73;13.32;;;;;;;;;;5030319;28;20041;-71
2023/06/18 05:19:56;;;;;;;20.27;12.90;;;;;;;;;;5032435;28;20092;-71
2023/06/18 05:22:22;;;;;;;19.50;13.35;;;;;;;;;;5041745;28;20033;-72
2023/06/18 05:24:48;;;;;;;19.75;14.73;;;;;;;;;;5033267;28;20029;-71
2023/06/18 05:27:14;;;;;;;21.52;13.93;;;;;;;;;;5035533;28;20327;-71
2023/06/18 05:29:40;;;;;;;18.02;13.07;;;;;;;;;;5032654;28;20030;-72
2023/06/18 05:32:06;;;;;;;19.77;12.82;;;;;;;;;;5038049;28;20063;-71
2023/06/18 05:34:32;;;;;;;18.60;12.07;;;;;;;;;;5032417;28;20030;-71
2023/06/18 05:36:58;;;;;;;19.70;13.18;;;;;;;;;;5039855;28;20041;-71
2023/06/18 05:39:24;;;;;;;21.30;13.40;;;;;;;;;;5039090;28;20071;-71
2023/06/18 05:41:50;;;;;;;20.85;13.13;;;;;;;;;;5030916;28;20034;-75
2023/06/18 05:44:16;;;;;;;16.42;12.57;;;;;;;;;;5035560;28;20472;-74
2023/06/18 05:46:42;;;;;;;17.33;12.00;;;;;;;;;;5035782;28;20055;-72
2023/06/18 05:49:09;;;;;;;21.38;14.15;;;;;;;;;;5038926;28;20096;-72
2023/06/18 05:51:35;;;;;;;18.38;13.18;;;;;;;;;;5033703;28;20033;-71
2023/06/18 05:54:02;;;;;;;17.25;13.02;;;;;;;;;;5033161;28;20080;-73
2023/06/18 05:56:28;;;;;;;15.68;12.20;;;;;;;;;;5037913;28;20029;-73
2023/06/18 05:58:54;;;;;;;17.00;13.10;;;;;;;;;;5031259;28;20353;-72
2023/06/18 06:01:20;;;;;;;20.63;12.18;;;;;;;;;;5032145;28;20033;-72
2023/06/18 06:03:46;;;;;;;16.48;12.10;;;;;;;;;;5031103;28;20036;-73
2023/06/18 06:06:12;;;;;;;18.10;12.40;;;;;;;;;;5037035;28;20029;-73
2023/06/18 06:08:38;;;;;;;16.33;11.55;;;;;;;;;;5034122;28;20531;-71
2023/06/18 06:11:05;;;;;;;17.13;11.07;;;;;;;;;;5037989;28;20026;-72
2023/06/18 06:13:31;;;;;;;16.40;12.05;;;;;;;;;;5031911;28;20418;-73
2023/06/18 06:15:57;;;;;;;17.77;11.88;;;;;;;;;;5039680;28;20029;-73
2023/06/18 06:18:23;;;;;;;17.30;12.13;;;;;;;;;;5041286;28;20025;-71
2023/06/18 06:20:49;;;;;;;20.90;12.38;;;;;;;;;;5034672;28;20111;-73
2023/06/18 06:23:15;;;;;;;15.63;11.07;;;;;;;;;;5033948;28;20458;-73
2023/06/18 06:25:41;;;;;;;17.85;11.30;;;;;;;;;;5029705;28;20061;-72
2023/06/18 06:28:07;;;;;;;13.73;10.88;;;;;;;;;;5039953;28;20025;-72
2023/06/18 06:30:33;;;;;;;15.27;10.77;;;;;;;;;;5033073;28;20025;-71
2023/06/18 06:32:59;;;;;;;15.45;10.32;;;;;;;;;;5030608;28;20087;-72
2023/06/18 06:35:27;;;;;;;15.27;11.15;;;;;;;;;;5031650;28;20060;-73
2023/06/18 06:37:53;;;;;;;17.15;11.15;;;;;;;;;;5031514;28;20497;-73
2023/06/18 06:40:19;;;;;;;15.07;10.50;;;;;;;;;;5031031;28;20037;-73
2023/06/18 06:42:45;;;;;;;14.25;10.43;;;;;;;;;;5030972;28;20037;-72
2023/06/18 06:45:11;;;;;;;15.65;11.05;;;;;;;;;;5031921;28;20029;-73
2023/06/18 06:47:37;;;;;;;17.33;11.60;;;;;;;;;;5031195;28;20033;-72
2023/06/18 06:50:04;;;;;;;12.85;10.63;;;;;;;;;;5028898;28;20467;-72
2023/06/18 06:52:30;;;;;;;17.48;10.85;;;;;;;;;;5029191;28;20051;-74
2023/06/18 06:54:56;;;;;;;16.48;10.35;;;;;;;;;;5030910;28;20053;-71
2023/06/18 06:57:21;;;;;;;17.23;10.18;;;;;;;;;;5030314;28;20107;-71
2023/06/18 06:59:47;;;;;;;15.48;10.07;;;;;;;;;;5030256;28;20022;-71
2023/06/18 07:02:13;;;;;;;13.85;10.43;;;;;;;;;;5028897;28;20029;-71
2023/06/18 07:04:45;;;;;;;10.00;8.38;;;;;;;;;;5029806;28;20056;-71
2023/06/18 07:07:12;;;;;;;20.27;10.70;;;;;;;;;;5029992;28;20021;-72
2023/06/18 07:09:38;;;;;;;11.90;8.70;;;;;;;;;;5028477;28;20368;-72
2023/06/18 07:12:04;;;;;;;15.73;9.75;;;;;;;;;;5032088;28;20060;-72
2023/06/18 07:14:30;;;;;;;13.10;9.50;;;;;;;;;;5035951;28;20047;-73
2023/06/18 07:16:56;;;;;;;11.40;8.60;;;;;;;;;;5034655;28;20045;-73
2023/06/18 07:19:22;;;;;;;12.98;8.95;;;;;;;;;;5034836;28;20093;-72
2023/06/18 07:21:50;;;;;;;14.85;8.23;;;;;;;;;;5035732;28;20037;-73
2023/06/18 07:24:16;;;;;;;10.73;8.70;;;;;;;;;;5037304;28;20048;-72
2023/06/18 07:26:42;;;;;;;12.38;7.90;;;;;;;;;;5031214;28;20537;-71
2023/06/18 07:29:08;;;;;;;9.55;7.65;;;;;;;;;;5030836;28;20021;-72
2023/06/18 07:31:34;;;;;;;10.60;7.55;;;;;;;;;;5031458;28;20395;-71
2023/06/18 07:34:00;;;;;;;14.60;7.63;;;;;;;;;;5030879;28;20101;-72
2023/06/18 07:36:26;;;;;;;10.75;7.32;;;;;;;;;;5032865;28;20074;-72
2023/06/18 07:38:52;;;;;;;9.45;6.97;;;;;;;;;;5033279;28;20021;-73
2023/06/18 07:41:18;;;;;;;9.45;6.63;;;;;;;;;;5032409;28;20076;-72
2023/06/18 07:43:44;;;;;;;11.18;7.32;;;;;;;;;;5034467;28;20087;-73
2023/06/18 07:46:11;;;;;;;11.40;6.63;;;;;;;;;;5043891;28;20554;-72
2023/06/18 07:48:37;;;;;;;11.95;7.15;;;;;;;;;;5034722;28;20100;-72
2023/06/18 07:51:04;;;;;;;11.90;7.45;;;;;;;;;;5034061;28;20364;-72
2023/06/18 07:53:31;;;;;;;11.40;6.72;;;;;;;;;;5033814;28;20025;-73
2023/06/18 07:55:57;;;;;;;21.38;10.38;;;;;;;;;;5033819;28;20187;-74
2023/06/18 07:58:23;;;;;;;14.68;8.80;;;;;;;;;;5033882;28;20447;-71
2023/06/18 08:00:49;;;;;;;9.60;7.32;;;;;;;;;;5033511;28;20041;-70
2023/06/18 08:03:15;;;;;;;10.55;6.65;;;;;;;;;;5032811;28;20029;-71
2023/06/18 08:05:41;;;;;;;10.70;7.97;;;;;;;;;;5033118;28;20029;-72
2023/06/18 08:08:07;;;;;;;11.05;6.47;;;;;;;;;;5033387;28;20037;-73
2023/06/18 08:10:33;;;;;;;9.07;6.50;;;;;;;;;;5032023;28;20135;-72
2023/06/18 08:12:59;;;;;;;10.00;7.25;;;;;;;;;;5031511;28;20033;-71
2023/06/18 08:15:25;;;;;;;10.82;6.22;;;;;;;;;;5032368;28;20026;-72
2023/06/18 08:17:53;;;;;;;10.93;6.20;;;;;;;;;;5035436;28;20026;-73
2023/06/18 08:20:19;;;;;;;11.60;6.82;;;;;;;;;;5034621;28;20605;-72
2023/06/18 08:22:45;;;;;;;8.02;6.13;;;;;;;;;;5036366;28;20041;-74
2023/06/18 08:25:11;;;;;;;9.70;7.10;;;;;;;;;;5055556;28;20405;-72
2023/06/18 08:27:37;;;;;;;9.93;7.47;;;;;;;;;;5052785;28;20021;-75
2023/06/18 08:30:04;;;;;;;10.38;6.28;;;;;;;;;;5032279;28;20022;-71
2023/06/18 08:32:30;;;;;;;12.35;7.18;;;;;;;;;;5031415;28;20040;-72
2023/06/18 08:34:56;;;;;;;8.25;6.68;;;;;;;;;;5032317;28;20024;-73
2023/06/18 08:37:22;;;;;;;12.27;8.38;;;;;;;;;;5032146;28;20060;-73
2023/06/18 08:39:48;;;;;;;13.02;7.90;;;;;;;;;;5032401;28;20021;-74
2023/06/18 08:42:20;;;;;;;11.02;7.93;;;;;;;;;;5031521;28;20025;-75
2023/06/18 08:44:46;;;;;;;15.25;9.40;;;;;;;;;;5032213;28;20032;-73
2023/06/18 08:47:12;;;;;;;13.48;8.73;;;;;;;;;;5031935;28;20029;-73
2023/06/18 08:49:41;;;;;;;11.30;8.05;;;;;;;;;;5033307;28;20103;-74
2023/06/18 08:52:08;;;;;;;8.77;6.35;;;;;;;;;;5033730;28;20464;-73
2023/06/18 08:54:35;;;;;;;7.88;6.45;;;;;;;;;;5032875;28;20017;-74
2023/06/18 08:57:05;;;;;;;10.35;6.97;;;;;;;;;;5032279;28;20026;-75
2023/06/18 08:59:32;;;;;;;9.48;6.47;;;;;;;;;;5035725;28;20029;-73
2023/06/18 09:01:58;;;;;;;8.57;6.50;;;;;;;;;;5033436;28;20030;-77
2023/06/18 09:04:25;;;;;;;11.95;6.50;;;;;;;;;;5033051;28;20030;-72
2023/06/18 09:06:51;;;;;;;10.70;6.43;;;;;;;;;;5031847;28;20022;-75
2023/06/18 09:09:17;;;;;;;8.10;5.97;;;;;;;;;;5031522;28;20034;-74
2023/06/18 09:11:43;;;;;;;7.03;5.18;;;;;;;;;;5031076;28;20021;-74
2023/06/18 09:14:09;;;;;;;7.55;6.30;;;;;;;;;;5031730;28;20174;-73
2023/06/18 09:16:35;;;;;;;9.32;6.68;;;;;;;;;;5031422;28;20080;-73
2023/06/18 09:19:02;;;;;;;10.82;5.82;;;;;;;;;;5031551;28;20383;-73
2023/06/18 09:21:38;;;;;;;8.88;6.38;;;;;;;;;;5031106;28;20029;-73
2023/06/18 09:24:08;;;;;;;8.18;6.15;;;;;;;;;;5030670;28;20029;-73
2023/06/18 09:26:35;;;;;;;10.40;5.07;;;;;;;;;;5031146;28;20080;-73
2023/06/18 09:29:08;;;;;;;8.20;5.85;;;;;;;;;;5031132;28;20033;-73
2023/06/18 09:31:35;;;;;;;6.93;5.22;;;;;;;;;;5031379;28;20030;-74
2023/06/18 09:34:30;;;;;;;11.82;5.60;;;;;;;;;;5030474;28;20029;-72
2023/06/18 09:36:56;;;;;;;8.27;6.00;;;;;;;;;;5032237;28;20036;-74
2023/06/18 09:39:23;;;;;;;7.63;4.93;;;;;;;;;;5032787;28;20026;-73
2023/06/18 09:41:50;;;;;;;6.80;5.10;;;;;;;;;;5033487;28;20080;-74
2023/06/18 09:44:16;;;;;;;7.00;5.00;;;;;;;;;;5031109;28;20018;-72
2023/06/18 09:46:43;;;;;;;10.48;5.35;;;;;;;;;;5030624;28;20029;-73
2023/06/18 09:49:11;;;;;;;7.40;5.15;;;;;;;;;;5031547;28;20025;-73
2023/06/18 09:51:41;;;;;;;8.50;4.95;;;;;;;;;;5029320;28;20028;-71
2023/06/18 09:54:08;;;;;;;8.90;5.30;;;;;;;;;;5035518;28;20052;-73
2023/06/18 09:56:34;;;;;;;13.15;5.15;;;;;;;;;;5034881;28;20366;-73
2023/06/18 09:59:01;;;;;;;6.03;4.90;;;;;;;;;;5031131;28;20109;-73
2023/06/18 10:01:29;;;;;;;6.85;5.00;;;;;;;;;;5036220;28;20068;-73
2023/06/18 10:03:56;;;;;;;6.47;5.00;;;;;;;;;;5029717;28;20021;-73
2023/06/18 10:06:23;;;;;;;9.82;5.13;;;;;;;;;;5036560;28;20033;-74
2023/06/18 10:08:53;;;;;;;8.98;5.65;;;;;;;;;;5033810;28;20034;-74
2023/06/18 10:11:20;;;;;;;7.65;4.88;;;;;;;;;;5030692;28;20068;-73
2023/06/18 10:13:47;;;;;;;7.78;5.03;;;;;;;;;;5031914;28;20025;-73
2023/06/18 10:16:14;;;;;;;10.73;5.55;;;;;;;;;;5031022;28;20479;-73
2023/06/18 10:18:45;;;;;;;12.85;5.05;;;;;;;;;;5031142;28;20094;-72
2023/06/18 10:21:11;;;;;;;6.38;4.65;;;;;;;;;;5030208;28;20498;-73
2023/06/18 10:23:37;;;;;;;7.35;5.07;;;;;;;;;;5029671;28;20147;-74
2023/06/18 10:26:03;;;;;;;12.55;5.45;;;;;;;;;;5030123;28;20129;-73
2023/06/18 10:28:30;;;;;;;7.93;5.13;;;;;;;;;;5030290;28;20025;-72
2023/06/18 10:30:56;;;;;;;7.35;5.30;;;;;;;;;;5030163;28;20026;-73
2023/06/18 10:33:23;;;;;;;10.88;6.03;;;;;;;;;;5029082;28;20065;-76
2023/06/18 10:35:50;;;;;;;8.60;4.72;;;;;;;;;;5029989;28;20022;-74
2023/06/18 10:38:16;;;;;;;6.72;5.07;;;;;;;;;;5035825;28;20026;-73
2023/06/18 10:40:42;;;;;;;8.68;4.97;;;;;;;;;;5034860;28;20029;-74
2023/06/18 10:43:09;;;;;;;13.02;5.80;;;;;;;;;;5031766;28;20087;-72
2023/06/18 10:45:35;;;;;;;9.52;5.45;;;;;;;;;;5032590;28;20084;-73
2023/06/18 10:48:18;;;;;;;11.10;5.53;;;;;;;;;;5030217;28;20018;-72
2023/06/18 10:51:02;;;;;;;7.15;5.25;;;;;;;;;;5033166;28;20494;-76
2023/06/18 10:53:28;;;;;;;7.28;4.97;;;;;;;;;;5029912;28;20042;-72
2023/06/18 10:55:57;;;;;;;7.30;4.97;;;;;;;;;;5035026;28;20029;-73
2023/06/18 10:58:42;;;;;;;11.95;5.10;;;;;;;;;;5032909;28;20101;-73
2023/06/18 11:01:23;;;;;;;14.13;5.20;;;;;;;;;;5034462;28;20022;-73
2023/06/18 11:03:59;;;;;;;7.60;4.68;;;;;;;;;;5032050;28;20037;-76
2023/06/18 11:06:31;;;;;;;7.68;4.80;;;;;;;;;;5030322;28;20084;-71
2023/06/18 11:08:57;;;;;;;9.38;4.60;;;;;;;;;;5032232;28;20063;-73
2023/06/18 11:11:24;;;;;;;9.48;4.72;;;;;;;;;;5031277;28;20025;-71
2023/06/18 11:13:59;;;;;;;10.27;5.20;;;;;;;;;;5028670;28;20042;-74
2023/06/18 11:16:25;;;;;;;7.20;4.32;;;;;;;;;;5032665;28;20414;-73
2023/06/18 11:18:57;;;;;;;6.65;4.57;;;;;;;;;;5033655;28;20088;-72
2023/06/18 11:21:23;;;;;;;5.57;4.50;;;;;;;;;;5034804;28;20172;-73
2023/06/18 11:23:49;;;;;;;7.35;4.57;;;;;;;;;;5032720;28;20060;-72
2023/06/18 11:26:19;;;;;;;8.02;4.55;;;;;;;;;;5032894;28;20070;-72
2023/06/18 11:28:46;;;;;;;4.97;4.10;;;;;;;;;;5033533;28;20063;-74
2023/06/18 11:31:12;;;;;;;7.80;4.65;;;;;;;;;;5033355;28;20182;-73
2023/06/18 11:33:39;;;;;;;12.82;4.95;;;;;;;;;;5032529;28;20158;-73
2023/06/18 11:36:09;;;;;;;5.97;4.40;;;;;;;;;;5033258;28;20083;-73
2023/06/18 11:38:35;;;;;;;8.52;4.82;;;;;;;;;;5034298;28;20164;-72
2023/06/18 11:41:01;;;;;;;5.35;4.25;;;;;;;;;;5034328;28;20025;-73
2023/06/18 11:43:42;;;;;;;5.25;4.68;;;;;;;;;;5034280;28;20545;-74
2023/06/18 11:46:08;;;;;;;6.65;4.68;;;;;;;;;;5035475;28;20041;-74
2023/06/18 11:48:34;;;;;;;7.22;4.53;;;;;;;;;;5034158;28;20021;-73
2023/06/18 11:51:01;;;;;;;13.05;5.53;;;;;;;;;;5033042;28;20213;-74
2023/06/18 11:53:27;;;;;;;7.10;4.75;;;;;;;;;;5031862;28;20018;-72
2023/06/18 11:55:54;;;;;;;8.23;4.38;;;;;;;;;;5033290;28;20092;-72
2023/06/18 11:58:21;;;;;;;8.05;4.38;;;;;;;;;;5033098;28;20095;-72
2023/06/18 12:00:47;;;;;;;6.93;4.53;;;;;;;;;;5032796;28;20021;-72
2023/06/18 12:03:13;;;;;;;7.05;4.15;;;;;;;;;;5032168;28;20030;-73
2023/06/18 12:05:40;;;;;;;11.18;4.82;;;;;;;;;;5032280;28;20029;-73
2023/06/18 12:08:13;;;;;;;9.13;5.22;;;;;;;;;;5032425;28;20108;-73
2023/06/18 12:10:40;;;;;;;10.30;5.40;;;;;;;;;;5033208;28;20020;-73
2023/06/18 12:13:09;;;;;;;7.75;4.57;;;;;;;;;;5033693;28;20283;-75
2023/06/18 12:15:37;;;;;;;8.07;4.50;;;;;;;;;;5036353;28;20033;-74
2023/06/18 12:18:09;;;;;;;6.97;4.53;;;;;;;;;;5035674;28;20120;-74
2023/06/18 12:20:35;;;;;;;7.10;4.80;;;;;;;;;;5037958;28;20026;-74
2023/06/18 12:23:02;;;;;;;7.32;4.30;;;;;;;;;;5033240;28;20040;-73
2023/06/18 12:25:30;;;;;;;5.90;4.10;;;;;;;;;;5037536;28;20021;-74
2023/06/18 12:27:57;;;;;;;10.60;4.80;;;;;;;;;;5036926;28;20022;-73
2023/06/18 12:30:35;;;;;;;4.72;3.63;;;;;;;;;;5036004;28;20026;-73
2023/06/18 12:33:02;;;;;;;5.22;3.92;;;;;;;;;;5037813;28;20409;-73
2023/06/18 12:35:28;;;;;;;6.22;4.20;;;;;;;;;;5034942;28;20029;-73
2023/06/18 12:37:54;;;;;;;8.02;4.55;;;;;;;;;;5033273;28;20437;-74
2023/06/18 12:40:24;;;;;;;5.90;4.30;;;;;;;;;;5033400;28;20025;-72
2023/06/18 12:42:51;;;;;;;5.80;4.18;;;;;;;;;;5034629;28;20029;-74
2023/06/18 12:45:22;;;;;;;5.90;3.97;;;;;;;;;;5033899;28;20120;-72
2023/06/18 12:47:48;;;;;;;5.18;4.13;;;;;;;;;;5033341;28;20022;-73
2023/06/18 12:50:40;;;;;;;5.82;4.50;;;;;;;;;;5033230;28;20022;-73
2023/06/18 12:53:14;;;;;;;6.72;4.60;;;;;;;;;;5032948;28;20483;-75
2023/06/18 12:55:40;;;;;;;4.93;4.13;;;;;;;;;;5033098;28;20040;-75
2023/06/18 12:58:16;;;;;;;4.82;4.10;;;;;;;;;;5036181;28;20260;-73
2023/06/18 13:00:43;;;;;;;7.65;5.05;;;;;;;;;;5035802;28;20029;-75
2023/06/18 13:03:09;;;;;;;6.50;4.22;;;;;;;;;;5032717;28;20498;-73
2023/06/18 13:05:35;;;;;;;7.13;4.13;;;;;;;;;;5032818;28;20021;-74
2023/06/18 13:08:01;;;;;;;5.55;4.22;;;;;;;;;;5032774;28;20041;-72
2023/06/18 13:10:27;;;;;;;6.07;3.78;;;;;;;;;;5032890;28;20022;-74
2023/06/18 13:12:55;;;;;;;8.40;4.43;;;;;;;;;;5034678;28;20099;-73
2023/06/18 13:15:21;;;;;;;6.50;4.05;;;;;;;;;;5033844;28;20063;-73
2023/06/18 13:17:47;;;;;;;6.93;4.40;;;;;;;;;;5035076;28;20094;-73
2023/06/18 13:20:13;;;;;;;4.32;3.90;;;;;;;;;;5034953;28;20026;-73
2023/06/18 13:22:39;;;;;;;7.57;4.43;;;;;;;;;;5030860;28;20368;-73
2023/06/18 13:25:05;;;;;;;5.32;3.80;;;;;;;;;;5032299;28;20030;-72
2023/06/18 13:27:32;;;;;;;4.75;3.90;;;;;;;;;;5032437;28;20022;-73
2023/06/18 13:29:58;;;;;;;9.40;4.13;;;;;;;;;;5032371;28;20545;-73
2023/06/18 13:32:25;;;;;;;6.15;4.35;;;;;;;;;;5031769;28;20021;-73
2023/06/18 13:34:51;;;;;;;6.25;3.97;;;;;;;;;;5032566;28;20104;-74
2023/06/18 13:37:17;;;;;;;6.15;3.67;;;;;;;;;;5032500;28;20386;-73
2023/06/18 13:39:45;;;;;;;6.25;3.72;;;;;;;;;;5031894;28;20537;-73
2023/06/18 13:42:11;;;;;;;5.80;4.30;;;;;;;;;;5032463;28;20025;-73
2023/06/18 13:44:37;;;;;;;5.32;4.25;;;;;;;;;;5032938;28;20529;-73
2023/06/18 13:47:04;;;;;;;5.97;3.45;;;;;;;;;;5034127;28;20029;-74
2023/06/18 13:49:30;;;;;;;6.35;3.70;;;;;;;;;;5034804;28;20033;-74
2023/06/18 13:51:58;;;;;;;4.47;3.70;;;;;;;;;;5034197;28;20053;-75
2023/06/18 13:54:24;;;;;;;4.05;3.40;;;;;;;;;;5035234;28;20017;-73
2023/06/18 13:56:50;;;;;;;5.45;3.90;;;;;;;;;;5035921;28;20040;-73
2023/06/18 13:59:16;;;;;;;6.00;3.90;;;;;;;;;;5032476;28;20376;-73
2023/06/18 14:01:43;;;;;;;5.32;3.55;;;;;;;;;;5031812;28;20030;-73
2023/06/18 14:04:09;;;;;;;13.60;4.25;;;;;;;;;;5031847;28;20090;-73
2023/06/18 14:06:35;;;;;;;7.18;3.90;;;;;;;;;;5032383;28;20026;-73
2023/06/18 14:09:01;;;;;;;5.68;3.97;;;;;;;;;;5031793;28;20437;-73
2023/06/18 14:11:27;;;;;;;7.35;4.30;;;;;;;;;;5031765;28;20053;-73
2023/06/18 14:13:54;;;;;;;4.07;3.67;;;;;;;;;;5031411;28;20029;-73
2023/06/18 14:16:20;;;;;;;8.70;3.38;;;;;;;;;;5031857;28;20112;-73
2023/06/18 14:18:48;;;;;;;6.68;3.53;;;;;;;;;;5031634;28;20088;-74
2023/06/18 14:21:14;;;;;;;7.90;4.60;;;;;;;;;;5031576;28;20053;-73
2023/06/18 14:23:40;;;;;;;7.07;3.70;;;;;;;;;;5031016;28;20044;-73
2023/06/18 14:26:06;;;;;;;7.07;4.00;;;;;;;;;;5031203;28;20100;-73
2023/06/18 14:28:32;;;;;;;5.30;3.60;;;;;;;;;;5031730;28;20037;-73